Extreme weather reports worldwide

High gusts

Station
 
Location
 
Name
 
Wind
Knots
Gust
Knots
Vis
SM
Temp/Dew
C
Baro
inHg
METAR
 
LIVC 30 43 4/3 29.88 LIVC 070955Z AUTO 22030G43KT 170V260 //// 04/03 Q1012
CWLY 23 37 9 8/3 29.93 CWLY 071000Z AUTO 20023G37KT 9SM CLR 08/03 A2993 RMK SLP138
VAW ENSS Vardø, NO Vardø Airport, Svartnes 25 35 6.21 1/-2 29.70 ENSS 070950Z 09025G35KT 9999 -SHRA BKN015 01/M02 Q1006 RMK WIND 500FT /////KT
ONO KONO Ontario, US Ontario Municipal Airport 19 34 10 14/1 29.92 KONO 070953Z AUTO 32019G34KT 10SM CLR 14/01 A2992 RMK AO2 PK WND 31035/0930 SLP116 T01440011
LFMC Le Luc/Le Cannet, FR Le Luc-Le Cannet Airport 21 34 6.21 23/9 29.88 LFMC 071000Z AUTO 29021G34KT 9999 ////// 23/09 Q1012

Station
 
Location
 
Name
 
Wind
Knots
Gust
Knots
Vis
SM
Temp/Dew
C
Baro
inHg
METAR
 
KVC PAVC King Cove, US King Cove Airport 24 33 9 4/2 29.44 PAVC 070956Z AUTO 06024G33KT 9SM -RA OVC013 04/03 A2944 RMK AO2 PK WND 06034/0909 SLP971 T00440028 PNO $
ACP OITM Maragheh, IR Sahand Airport 19 33 4.97 16/7 29.97 OITM 071000Z 27019G33KT 8000 TSRA SCT035CB BKN170 16/07 Q1015
DRS EDDC Dresden, DE Dresden Airport 18 32 6.21 7/2 29.76 EDDC 070950Z 28018G32KT 250V330 9999 BKN020 BKN047 07/02 Q1008 NOSIG
PGF LFMP Perpignan/Rivesaltes, FR Perpignan-Rivesaltes (Llabanère) Airport 19 32 6.21 21/11 30.03 LFMP 071000Z AUTO 31019G32KT 9999 SCT100 21/11 Q1017 NOSIG
SCN EDDR Saarbrücken, DE Saarbrücken Airport 18 31 6.21 10/0 29.94 EDDR 070950Z 26018G31KT 9999 VCSH SCT035CB SCT042TCU 10/00 Q1014 TEMPO SHRA
KC83 26 31 10 12/8 29.99 KC83 070955Z AUTO 23026G31KT 10SM CLR 12/08 A2999 RMK AO2
MHV KMHV Mojave, US Mojave Airport 15 30 10 19/4 29.94 KMHV 070940Z AUTO 27015G30KT 10SM CLR 19/04 A2994 RMK A01
CXEC 19 30 10/-8 CXEC 071000Z AUTO 14019G30KT 10/M08 RMK AO1 PK WND 12030/0950 SLP127 T01041080 57007
ENUG 18 29 2/-1 29.73 ENUG 070950Z AUTO 10018G29KT 9999NDV -SHRA SCT004/// BKN020/// BKN034/// 02/M01 Q1007 W///S4
HTY LTDA Hatay, TR Hatay Airport 19 29 6.21 28/9 29.88 LTDA 070950Z 29019G29KT CAVOK 28/09 Q1012 NOSIG
STG PAPB St George, US St George Airport 24 29 8 3/2 29.41 PAPB 070953Z AUTO 08024G29KT 8SM -RA OVC008 03/03 A2941 RMK AO2 PK WND 08029/0911 RAB0858 SLP947 P0001 T00330028 TSNO
WJF KWJF Lancaster, US General WM J Fox Airfield 22 29 10 17/5 29.95 KWJF 070956Z AUTO 28022G29KT 10SM CLR 18/06 A2995 RMK AO2 PK WND 27030/0929 SLP124 T01780056
CWMQ 22 29 9/-10 CWMQ 071000Z AUTO 12022G29KT 10/M10 RMK AO1 PK WND 13031/0938 SLP150 T00961100 58023
CXEG 21 29 8/-6 CXEG 071000Z AUTO 13021G29KT 09/M07 RMK AO1 PK WND 14032/0900 SLP119 T00891066 58007
TBS UGTB Tbilisi, GE Tbilisi International Airport 19 29 6.21 21/5 29.94 UGTB 071000Z 32019G29KT CAVOK 21/05 Q1014 NOSIG
ETSB DE Büchel Air Base 17 28 6.21 5/0 29.88 ETSB 070934Z 29017G28KT 9999 FEW010 FEW015CB BKN025 05/M00 Q1012 RESHSN BLU BLU TEMPO GRN
CWCT 20 28 7/-9 CWCT 071000Z AUTO 12020G28KT 07/M10 RMK AO1 PK WND 12028/0954 SLP164 T00731096 56014
YER CYER Fort Severn, CA Fort Severn Airport 17 28 5 -2/-2 29.93 CYER 071000Z AUTO 32017G28KT 5SM -SN BKN009 OVC021 M02/M02 A2993 RMK SLP139
CZVL Edmonton, CA Edmonton / Villeneuve Airport 17 28 9 10/-7 29.86 CZVL 071000Z AUTO 14017G28KT 9SM CLR 10/M07 A2986 RMK SLP118 DENSITY ALT 2400FT
FLW LPFL Santa Cruz das Flores, PT Flores Airport 14 28 6.21 19/17 29.79 LPFL 071000Z 21014G28KT 160V250 9999 VCSH SCT005 BKN010 19/17 Q1009
WIE ETOU Wiesbaden, DE Wiesbaden Army Airfield 11 28 3.73 5/2 29.96 ETOU 071001Z AUTO 31011G28KT 6000 -RA BKN018 BKN055 OVC070 05/02 A2996 RMK AO2 CIG 018V070 CIG 013 RWY07 SLP152 $
KQEN 12 28 3.73 9/-2 29.56 KQEN 071010Z AUTO 25012G28KT 6000 HZ BKN028 09/M02 A2956 RMK A02 TSNO
SFO KSFO San Francisco, US San Francisco International Airport 21 27 10 11/7 30.04 KSFO 070956Z 28021G27KT 10SM FEW009 FEW015 12/08 A3004 RMK AO2 PK WND 28027/0947 SLP171 T01170078
YZH CYZH Slave Lake, CA Slave Lake Airport 15 27 9 12/-5 29.87 CYZH 071000Z AUTO 10015G27KT 9SM SCT150 OVC170 12/M05 A2987 RMK SLP123 DENSITY ALT 2100FT
KZN UWKD Kazan, RU Kazan International Airport 17 27 6.21 21/-2 29.91 UWKD 071000Z 19009G14MPS CAVOK 21/M02 Q1013 WS R11 R11/70D TEMPO 17012G20MPS RMK QFE750/1000
ETML 15 26 7/3 29.73 ETML 070920Z AUTO 27015G26KT //// // ////// 07/03 Q1007 ///
ETSH DE Holzdorf Air Base 15 26 6.21 5/3 29.79 ETSH 070920Z 30015G26KT 9999 -RA FEW007 BKN010 BKN020 05/03 Q1009 GRN GRN BECMG WHT
LUX ELLX Luxembourg, LU Luxembourg-Findel International Airport 13 26 6.21 7/1 29.97 ELLX 070950Z 29013G26KT 260V320 9999 SCT025 FEW027TCU 07/01 Q1015 NOSIG
PSC KPSC Pasco, US Tri Cities Airport 20 26 10 11/3 30.06 KPSC 070953Z AUTO 23020G26KT 10SM BLDU CLR 12/04 A3006 RMK AO2 PK WND 22027/0927 SLP178 T01170039
K0CO 23 26 10 1/-5 30.46 K0CO 070955Z AUTO 29023G26KT 10SM CLR 01/M05 A3046 RMK AO2
CIN KCIN Carroll, US Arthur N Neu Airport 12 26 10 9/3 30.06 KCIN 070955Z AUTO 30012G26KT 10SM CLR 09/03 A3006 RMK AO2
KFP PAKF False Pass, US False Pass Airport 18 26 5 4/3 29.42 PAKF 070956Z AUTO 10018G26KT 5SM -RA BR OVC009 04/03 A2942 RMK AO2 PK WND 12031/0906 CIG 007V012 SLP963 P0007 T00440033
CWRO 21 26 8/7 CWRO 071000Z AUTO 16021G26KT 08/08 RMK AO1 PK WND 17029/0918 SLP101 T00810075 51015
YBX CYBX Lourdes-De-Blanc-Sablon, CA Lourdes de Blanc Sablon Airport 18 26 15 2/1 30.02 CYBX 071000Z 07018G26KT 15SM SCT010 OVC021 02/01 A3002 RMK SC3SC5 SLP168
YQF CYQF Red Deer, CA Red Deer Regional Airport 18 26 15 9/-3 29.83 CYQF 071000Z 13018G26KT 15SM BKN150 OVC250 09/M03 A2983 RMK AC5CI3 SLP110 DENSITY ALT 3100FT
POM AYPY Port Moresby, PG Port Moresby Jacksons International Airport 15 25 6.21 27/24 29.76 AYPY 070900Z 16015G25KT 9999 SCT050 BKN070 27/24 Q1008
CWDM 14 25 2/2 CWDM 070900Z AUTO 06014G25KT 03/03 RMK AO1 5PAST HR 3002 PK WND 04025/0855 SLP132 P0002 T00250025 50005
CYBW Calgary, CA Calgary / Springbank Airport 16 25 9 7/-2 29.81 CYBW 071000Z AUTO 15016G25KT 9SM FEW150 OVC240 07/M02 A2981 RMK SLP100 DENSITY ALT 4100FT
CYED Edmonton, CA Edmonton (CFB Namao) Heliport 17 25 9 10/-7 29.89 CYED 071000Z AUTO 13017G25KT 9SM CLR 10/M07 A2989 RMK SLP128
KBP UKBB Kiev, UA Boryspil International Airport 14 25 6.21 17/2 29.88 UKBB 071000Z 20007G13MPS 160V230 CAVOK 17/02 Q1012 R18L/CLRD// TEMPO 19009G16MPS
SCW UUYY Syktyvkar, RU Syktyvkar Airport 16 25 6.21 20/4 29.73 UUYY 071000Z 21008G13MPS 9999 SCT040CB 20/04 Q1007 R18/61D NOSIG RMK QFE747/0996
ELN KELN Ellensburg, US Bowers Field 18 24 10 7/-2 30.06 KELN 070953Z AUTO 32018G24KT 10SM CLR 07/M02 A3006 RMK AO2 PK WND 31030/0903 SLP175 T00721022
KSDB 11 24 10 13/2 30.06 KSDB 070953Z AUTO 32011G24KT 10SM CLR 14/02 A3006 RMK AO2 PK WND 33035/0858 SLP127 T01390022
RMS ETAR Ramstein, DE Ramstein Air Base 15 24 6.21 10/0 29.94 ETAR 070958Z 29015G24KT 9999 -DZ BKN046 BKN200 10/00 A2994 RMK AO2A WSHFT 51 SLP147 FZRANO $
CWDZ 16 24 9/-4 CWDZ 071000Z AUTO 15016G24KT 09/M05 RMK AO1 PK WND 14026/0901 T00901048